createdAt,value
2023-02-26T00:00:49.612Z,0.20
2023-02-26T00:03:19.520Z,0.20
2023-02-26T00:05:49.355Z,0.20
2023-02-26T00:08:19.432Z,0.20
2023-02-26T00:10:51.840Z,0.20
2023-02-26T00:13:22.724Z,0.20
2023-02-26T00:15:54.964Z,0.20
2023-02-26T00:18:26.002Z,0.20
2023-02-26T00:20:57.249Z,0.20
2023-02-26T00:23:27.727Z,0.20
2023-02-26T00:26:01.007Z,0.10
2023-02-26T00:28:31.831Z,0.20
2023-02-26T00:31:02.573Z,0.20
2023-02-26T00:33:33.449Z,0.20
2023-02-26T00:36:20.689Z,0.20
2023-02-26T00:39:02.881Z,0.20
2023-02-26T00:41:36.836Z,0.20
2023-02-26T00:44:07.693Z,0.20
2023-02-26T00:46:48.415Z,0.20
2023-02-26T00:49:30.032Z,0.20
2023-02-26T00:52:03.815Z,0.30
2023-02-26T00:54:35.384Z,0.30
2023-02-26T00:57:07.838Z,0.30
2023-02-26T00:59:37.678Z,0.30
2023-02-26T01:02:07.540Z,0.30
2023-02-26T01:04:39.332Z,0.30
2023-02-26T01:07:12.125Z,0.30
2023-02-26T01:09:42.765Z,0.30
2023-02-26T01:12:17.562Z,0.30
2023-02-26T01:14:49.634Z,0.30
2023-02-26T01:17:26.641Z,0.30
2023-02-26T01:20:00.989Z,0.40
2023-02-26T01:22:36.533Z,0.30
2023-02-26T01:25:10.919Z,0.40
2023-02-26T01:27:44.242Z,0.30
2023-02-26T01:30:15.702Z,0.40
2023-02-26T01:32:51.472Z,0.40
2023-02-26T01:35:36.061Z,0.40
2023-02-26T01:38:13.622Z,0.40
2023-02-26T01:41:24.833Z,0.40
2023-02-26T01:44:15.616Z,0.40
2023-02-26T01:47:07.203Z,0.40
2023-02-26T01:49:38.354Z,0.40
2023-02-26T01:52:10.309Z,0.40
2023-02-26T01:54:41.466Z,0.40
2023-02-26T01:57:14.485Z,0.40
2023-02-26T01:59:50.178Z,0.40
2023-02-26T02:02:23.200Z,0.40
2023-02-26T02:04:53.975Z,0.40
2023-02-26T02:07:23.894Z,0.40
2023-02-26T02:09:53.970Z,0.40
2023-02-26T02:12:33.473Z,0.40
2023-02-26T02:15:15.431Z,0.40
2023-02-26T02:17:53.875Z,0.40
2023-02-26T02:21:03.328Z,0.40
2023-02-26T02:23:39.253Z,0.40
2023-02-26T02:26:47.094Z,0.30
2023-02-26T02:29:51.060Z,0.40
2023-02-26T02:32:29.028Z,0.40
2023-02-26T02:35:05.918Z,0.40
2023-02-26T02:37:41.763Z,0.30
2023-02-26T02:40:15.261Z,0.30
2023-02-26T02:42:52.551Z,0.30
2023-02-26T02:45:27.995Z,0.30
2023-02-26T02:48:09.053Z,0.40
2023-02-26T02:50:44.582Z,0.30
2023-02-26T02:53:20.205Z,0.30
2023-02-26T02:55:57.438Z,0.30
2023-02-26T02:58:33.013Z,0.30
2023-02-26T03:01:07.871Z,0.30
2023-02-26T03:03:50.905Z,0.30
2023-02-26T03:06:20.853Z,0.30
2023-02-26T03:08:52.373Z,0.30
2023-02-26T03:11:22.330Z,0.40
2023-02-26T03:13:53.443Z,0.30
2023-02-26T03:16:53.626Z,0.30
2023-02-26T03:19:34.339Z,0.30
2023-02-26T03:22:10.247Z,0.40
2023-02-26T03:24:50.395Z,0.30
2023-02-26T03:27:27.633Z,0.30
2023-02-26T03:30:03.142Z,0.30
2023-02-26T03:32:38.128Z,0.30
2023-02-26T03:35:17.640Z,0.30
2023-02-26T03:37:51.666Z,0.30
2023-02-26T03:40:30.400Z,0.30
2023-02-26T03:43:07.650Z,0.40
2023-02-26T03:45:40.309Z,0.30
2023-02-26T03:48:14.591Z,0.40
2023-02-26T03:50:50.976Z,0.30
2023-02-26T03:53:26.023Z,0.30
2023-02-26T03:56:03.533Z,0.30
2023-02-26T03:58:33.635Z,0.30
2023-02-26T04:01:18.642Z,0.30
2023-02-26T04:03:54.654Z,0.30
2023-02-26T04:06:28.193Z,0.30
2023-02-26T04:08:58.762Z,0.30
2023-02-26T04:11:29.866Z,0.30
2023-02-26T04:13:59.739Z,0.30
2023-02-26T04:16:29.773Z,0.30
2023-02-26T04:18:59.667Z,0.30
2023-02-26T04:21:32.175Z,0.30
2023-02-26T04:24:02.075Z,0.30
2023-02-26T04:26:31.917Z,0.30
2023-02-26T04:29:01.814Z,0.30
2023-02-26T04:31:31.794Z,0.30
2023-02-26T04:34:01.754Z,0.30
2023-02-26T04:36:34.247Z,0.30
2023-02-26T04:39:04.124Z,0.30
2023-02-26T04:41:33.982Z,0.30
2023-02-26T04:44:04.046Z,0.30
2023-02-26T04:46:34.219Z,0.40
2023-02-26T04:49:04.869Z,0.40
2023-02-26T04:51:37.326Z,0.40
2023-02-26T04:54:07.792Z,0.40
2023-02-26T04:56:37.644Z,0.40
2023-02-26T04:59:07.570Z,0.40
2023-02-26T05:01:37.442Z,0.40
2023-02-26T05:04:07.454Z,0.40
2023-02-26T05:06:39.942Z,0.40
2023-02-26T05:09:09.795Z,0.40
2023-02-26T05:11:39.733Z,0.40
2023-02-26T05:14:09.746Z,0.40
2023-02-26T05:16:39.720Z,0.40
2023-02-26T05:19:09.570Z,0.40
2023-02-26T05:21:42.239Z,0.40
2023-02-26T05:24:12.172Z,0.40
2023-02-26T05:26:42.022Z,0.40
2023-02-26T05:29:12.055Z,0.40
2023-02-26T05:31:42.007Z,0.40
2023-02-26T05:34:12.261Z,0.40
2023-02-26T05:36:44.709Z,0.40
2023-02-26T05:39:14.791Z,0.40
2023-02-26T05:41:46.543Z,0.40
2023-02-26T05:44:16.648Z,0.40
2023-02-26T05:46:46.537Z,0.40
2023-02-26T05:49:16.466Z,0.40
2023-02-26T05:51:48.902Z,0.40
2023-02-26T05:54:18.781Z,0.40
2023-02-26T05:56:48.825Z,0.40
2023-02-26T05:59:18.750Z,0.40
2023-02-26T06:01:49.517Z,0.30
2023-02-26T06:04:19.604Z,0.30
2023-02-26T06:06:52.084Z,0.40
2023-02-26T06:09:21.898Z,0.40
2023-02-26T06:11:51.755Z,0.30
2023-02-26T06:14:21.610Z,0.30
2023-02-26T06:16:51.490Z,0.30
2023-02-26T06:19:21.667Z,0.30
2023-02-26T06:21:54.183Z,0.30
2023-02-26T06:24:24.186Z,0.30
2023-02-26T06:26:54.023Z,0.30
2023-02-26T06:29:24.092Z,0.30
2023-02-26T06:31:54.054Z,0.30
2023-02-26T06:34:23.914Z,0.30
2023-02-26T06:36:56.368Z,0.40
2023-02-26T06:39:26.213Z,0.40
2023-02-26T06:41:56.241Z,0.40
2023-02-26T06:44:26.122Z,0.40
2023-02-26T06:46:55.987Z,0.30
2023-02-26T06:49:25.869Z,0.30
2023-02-26T06:51:58.295Z,0.30
2023-02-26T06:54:28.215Z,0.30
2023-02-26T06:57:00.410Z,0.30
2023-02-26T06:59:30.306Z,0.30
2023-02-26T07:02:00.239Z,0.30
2023-02-26T07:04:30.125Z,0.40
2023-02-26T07:07:02.548Z,0.30
2023-02-26T07:09:32.412Z,0.40
2023-02-26T07:12:02.253Z,0.50
2023-02-26T07:14:32.085Z,0.50
2023-02-26T07:17:01.965Z,0.60
2023-02-26T07:19:31.913Z,0.70
2023-02-26T07:22:04.473Z,0.70
2023-02-26T07:24:34.310Z,0.80
2023-02-26T07:27:04.166Z,0.90
2023-02-26T07:29:34.176Z,0.80
2023-02-26T07:32:04.173Z,0.90
2023-02-26T07:34:34.496Z,1.00
2023-02-26T07:37:06.918Z,1.10
2023-02-26T07:39:36.774Z,1.10
2023-02-26T07:42:06.988Z,1.10
2023-02-26T07:44:36.838Z,1.10
2023-02-26T07:47:07.199Z,1.10
2023-02-26T07:49:37.122Z,1.20
2023-02-26T07:52:10.233Z,1.30
2023-02-26T07:54:40.592Z,1.30
2023-02-26T07:57:10.458Z,1.30
2023-02-26T07:59:40.308Z,1.40
2023-02-26T08:02:10.851Z,1.40
2023-02-26T08:04:40.797Z,1.40
2023-02-26T08:07:13.242Z,1.50
2023-02-26T08:09:43.093Z,1.50
2023-02-26T08:12:13.093Z,1.60
2023-02-26T08:14:43.601Z,1.60
2023-02-26T08:17:14.150Z,1.50
2023-02-26T08:19:44.042Z,1.50
2023-02-26T08:22:16.906Z,1.50
2023-02-26T08:24:46.808Z,1.50
2023-02-26T08:27:16.641Z,1.50
2023-02-26T08:29:46.542Z,1.60
2023-02-26T08:32:17.599Z,1.60
2023-02-26T08:34:47.576Z,1.60
2023-02-26T08:37:22.735Z,1.70
2023-02-26T08:39:52.657Z,1.80
2023-02-26T08:42:23.052Z,1.70
2023-02-26T08:44:53.296Z,1.80
2023-02-26T08:47:28.801Z,1.80
2023-02-26T08:49:59.152Z,1.80
2023-02-26T08:52:31.595Z,1.90
2023-02-26T08:55:01.426Z,2.00
2023-02-26T08:57:31.301Z,2.10
2023-02-26T09:00:01.147Z,2.10
2023-02-26T09:02:31.075Z,2.00
2023-02-26T09:05:00.934Z,2.10
2023-02-26T09:07:33.447Z,2.10
2023-02-26T09:10:03.378Z,2.10
2023-02-26T09:12:33.258Z,2.10
2023-02-26T09:15:04.409Z,2.20
2023-02-26T09:17:34.544Z,2.20
2023-02-26T09:20:04.737Z,2.30
2023-02-26T09:22:37.388Z,2.30
2023-02-26T09:25:09.323Z,2.40
2023-02-26T09:27:39.408Z,2.50
2023-02-26T09:30:12.493Z,2.40
2023-02-26T09:32:42.613Z,2.30
2023-02-26T09:35:12.816Z,2.30
2023-02-26T09:37:45.220Z,2.30
2023-02-26T09:40:26.662Z,2.40
2023-02-26T09:43:17.226Z,2.50
2023-02-26T09:45:50.000Z,2.70
2023-02-26T09:48:22.041Z,2.70
2023-02-26T09:50:56.601Z,2.70
2023-02-26T09:53:32.020Z,2.40
2023-02-26T09:56:06.166Z,2.30
2023-02-26T09:58:42.069Z,2.30
2023-02-26T10:01:17.118Z,2.20
2023-02-26T10:04:06.215Z,2.10
2023-02-26T10:06:41.826Z,2.00
2023-02-26T10:09:35.876Z,2.00
2023-02-26T10:12:11.927Z,2.20
2023-02-26T10:14:50.302Z,2.50
2023-02-26T10:17:27.644Z,2.50
2023-02-26T10:20:04.548Z,2.60
2023-02-26T10:22:40.361Z,2.60
2023-02-26T10:25:19.446Z,2.70
2023-02-26T10:28:04.990Z,2.80
2023-02-26T10:30:40.256Z,2.70
2023-02-26T10:33:21.312Z,2.70
2023-02-26T10:35:59.189Z,2.60
2023-02-26T10:38:34.253Z,2.70
2023-02-26T10:41:13.163Z,2.80
2023-02-26T10:43:45.822Z,2.80
2023-02-26T10:46:30.885Z,3.00
2023-02-26T10:49:16.097Z,3.00
2023-02-26T10:51:47.279Z,3.00
2023-02-26T10:54:24.103Z,3.10
2023-02-26T10:56:57.076Z,3.20
2023-02-26T10:59:27.111Z,3.00
2023-02-26T11:01:58.271Z,2.80
2023-02-26T11:04:30.194Z,2.70
2023-02-26T11:07:03.338Z,2.60
2023-02-26T11:09:38.689Z,2.70
2023-02-26T11:12:18.122Z,2.80
2023-02-26T11:14:50.859Z,2.80
2023-02-26T11:17:23.882Z,2.80
2023-02-26T11:19:59.109Z,2.70
2023-02-26T11:22:32.430Z,2.70
2023-02-26T11:25:02.682Z,2.80
2023-02-26T11:27:41.062Z,2.80
2023-02-26T11:30:19.481Z,2.80
2023-02-26T11:32:54.959Z,2.70
2023-02-26T11:35:30.023Z,3.00
2023-02-26T11:38:04.561Z,3.10
2023-02-26T11:40:41.235Z,2.90
2023-02-26T11:43:19.282Z,3.00
2023-02-26T11:45:56.866Z,2.80
2023-02-26T11:48:31.148Z,2.70
2023-02-26T11:51:03.560Z,2.70
2023-02-26T11:53:37.689Z,2.70
2023-02-26T11:56:15.329Z,2.80
2023-02-26T11:58:49.798Z,2.70
2023-02-26T12:01:23.084Z,2.90
2023-02-26T12:03:53.844Z,3.10
2023-02-26T12:06:26.278Z,3.20
2023-02-26T12:08:56.636Z,3.20
2023-02-26T12:11:47.152Z,3.00
2023-02-26T12:14:58.126Z,3.00
2023-02-26T12:17:43.094Z,2.90
2023-02-26T12:20:23.583Z,2.90
2023-02-26T12:23:09.414Z,3.00
2023-02-26T12:26:04.136Z,2.90
2023-02-26T12:28:50.071Z,2.90
2023-02-26T12:32:03.107Z,3.00
2023-02-26T12:35:05.981Z,3.10
2023-02-26T12:37:51.486Z,3.00
2023-02-26T12:41:04.349Z,2.80
2023-02-26T12:43:43.453Z,2.70
2023-02-26T12:46:45.152Z,2.70
2023-02-26T12:49:52.140Z,2.80
2023-02-26T12:52:41.292Z,2.60
2023-02-26T12:55:26.400Z,2.60
2023-02-26T12:58:17.765Z,2.60
2023-02-26T13:01:10.153Z,2.60
2023-02-26T13:04:35.945Z,2.80
2023-02-26T13:07:29.136Z,3.00
2023-02-26T13:10:06.780Z,3.10
2023-02-26T13:12:55.146Z,3.10
2023-02-26T13:15:52.828Z,3.10
2023-02-26T13:18:32.475Z,3.20
2023-02-26T13:21:06.480Z,3.40
2023-02-26T13:23:46.774Z,3.30
2023-02-26T13:26:18.749Z,3.40
2023-02-26T13:28:55.949Z,3.30
2023-02-26T13:31:33.189Z,3.20
2023-02-26T13:34:09.549Z,3.00
2023-02-26T13:36:39.722Z,2.80
2023-02-26T13:39:41.262Z,2.70
2023-02-26T13:42:26.971Z,2.60
2023-02-26T13:45:19.481Z,2.70
2023-02-26T13:48:14.656Z,2.70
2023-02-26T13:51:09.608Z,2.60
2023-02-26T13:53:54.881Z,2.50
2023-02-26T13:56:56.263Z,2.60
2023-02-26T13:59:49.647Z,2.70
2023-02-26T14:02:59.152Z,3.00
2023-02-26T14:06:01.076Z,3.30
2023-02-26T14:08:51.490Z,3.40
2023-02-26T14:12:03.572Z,3.30
2023-02-26T14:14:39.905Z,3.10
2023-02-26T14:17:33.359Z,3.00
2023-02-26T14:20:27.780Z,3.00
2023-02-26T14:23:17.079Z,2.90
2023-02-26T14:25:52.208Z,2.80
2023-02-26T14:28:46.539Z,2.70
2023-02-26T14:31:22.268Z,2.70
2023-02-26T14:34:16.651Z,2.70
2023-02-26T14:36:51.505Z,2.70
2023-02-26T14:39:33.599Z,2.80
2023-02-26T14:42:07.551Z,2.90
2023-02-26T14:44:46.592Z,3.00
2023-02-26T14:47:17.333Z,3.00
2023-02-26T14:49:49.820Z,3.00
2023-02-26T14:52:55.760Z,3.00
2023-02-26T14:55:45.817Z,3.10
2023-02-26T14:58:56.241Z,3.00
2023-02-26T15:01:47.034Z,2.90
2023-02-26T15:04:56.817Z,2.80
2023-02-26T15:07:55.766Z,2.70
2023-02-26T15:10:42.808Z,2.60
2023-02-26T15:13:40.479Z,2.60
2023-02-26T15:16:27.906Z,2.60
2023-02-26T15:19:21.517Z,2.60
2023-02-26T15:22:08.406Z,2.70
2023-02-26T15:24:38.481Z,2.80
2023-02-26T15:27:13.369Z,2.90
2023-02-26T15:29:44.637Z,3.00
2023-02-26T15:32:25.909Z,2.90
2023-02-26T15:35:04.750Z,2.90
2023-02-26T15:37:35.595Z,2.90
2023-02-26T15:40:09.958Z,2.80
2023-02-26T15:42:43.835Z,2.80
2023-02-26T15:45:29.193Z,2.70
2023-02-26T15:48:04.595Z,2.60
2023-02-26T15:50:41.873Z,2.60
2023-02-26T15:53:20.429Z,2.50
2023-02-26T15:55:53.352Z,2.40
2023-02-26T15:58:34.091Z,2.40
2023-02-26T16:01:07.403Z,2.40
2023-02-26T16:03:40.651Z,2.40
2023-02-26T16:06:16.334Z,2.30
2023-02-26T16:08:46.418Z,2.30
2023-02-26T16:11:17.503Z,2.30
2023-02-26T16:13:48.102Z,2.20
2023-02-26T16:16:22.136Z,2.20
2023-02-26T16:18:52.344Z,2.20
2023-02-26T16:21:31.263Z,2.10
2023-02-26T16:24:04.638Z,2.10
2023-02-26T16:26:38.354Z,2.10
2023-02-26T16:29:15.356Z,2.00
2023-02-26T16:31:48.872Z,2.00
2023-02-26T16:34:37.767Z,1.90
2023-02-26T16:37:27.428Z,1.90
2023-02-26T16:40:01.622Z,1.90
2023-02-26T16:42:48.526Z,1.90
2023-02-26T16:45:25.730Z,1.90
2023-02-26T16:47:58.573Z,1.80
2023-02-26T16:50:32.060Z,1.80
2023-02-26T16:53:10.152Z,1.80
2023-02-26T16:55:42.301Z,1.70
2023-02-26T16:58:17.797Z,1.70
2023-02-26T17:00:48.896Z,1.70
2023-02-26T17:03:22.562Z,1.60
2023-02-26T17:06:00.087Z,1.60
2023-02-26T17:08:37.225Z,1.60
2023-02-26T17:11:11.095Z,1.60
2023-02-26T17:13:41.003Z,1.50
2023-02-26T17:16:15.591Z,1.50
2023-02-26T17:18:45.883Z,1.50
2023-02-26T17:21:15.774Z,1.50
2023-02-26T17:23:48.566Z,1.50
2023-02-26T17:26:18.972Z,1.50
2023-02-26T17:28:48.839Z,1.50
2023-02-26T17:31:18.973Z,1.40
2023-02-26T17:33:50.371Z,1.40
2023-02-26T17:36:22.575Z,1.40
2023-02-26T17:38:55.020Z,1.40
2023-02-26T17:41:25.203Z,1.40
2023-02-26T17:43:55.421Z,1.30
2023-02-26T17:46:25.559Z,1.30
2023-02-26T17:48:55.428Z,1.20
2023-02-26T17:51:27.420Z,1.10
2023-02-26T17:54:00.732Z,1.10
2023-02-26T17:56:34.055Z,1.00
2023-02-26T17:59:05.116Z,1.10
2023-02-26T18:01:35.057Z,1.10
2023-02-26T18:04:05.121Z,1.10
2023-02-26T18:06:39.309Z,1.20
2023-02-26T18:09:15.543Z,1.20
2023-02-26T18:11:45.741Z,1.30
2023-02-26T18:14:15.603Z,1.20
2023-02-26T18:16:47.548Z,1.20
2023-02-26T18:19:17.955Z,1.30
2023-02-26T18:21:47.799Z,1.20
2023-02-26T18:24:20.222Z,1.20
2023-02-26T18:26:50.098Z,1.20
2023-02-26T18:29:20.909Z,1.10
2023-02-26T18:31:51.022Z,1.20
2023-02-26T18:34:20.980Z,1.10
2023-02-26T18:36:51.008Z,1.10
2023-02-26T18:39:27.474Z,1.10
2023-02-26T18:41:57.320Z,1.10
2023-02-26T18:44:28.559Z,1.10
2023-02-26T18:46:58.429Z,1.00
2023-02-26T18:49:28.580Z,1.00
2023-02-26T18:51:59.126Z,1.00
2023-02-26T18:54:31.580Z,1.00
2023-02-26T18:57:01.518Z,0.90
2023-02-26T18:59:31.631Z,0.90
2023-02-26T19:02:01.652Z,0.90
2023-02-26T19:04:32.321Z,0.90
2023-02-26T19:07:02.232Z,0.90
2023-02-26T19:09:35.121Z,0.80
2023-02-26T19:12:06.019Z,0.80
2023-02-26T19:14:36.209Z,0.80
2023-02-26T19:17:06.189Z,0.70
2023-02-26T19:19:36.034Z,0.70
2023-02-26T19:22:06.452Z,0.70
2023-02-26T19:24:39.209Z,0.60
2023-02-26T19:27:09.340Z,0.60
2023-02-26T19:29:39.606Z,0.60
2023-02-26T19:32:10.814Z,0.60
2023-02-26T19:34:41.160Z,0.50
2023-02-26T19:37:11.301Z,0.50
2023-02-26T19:39:43.725Z,0.50
2023-02-26T19:42:13.733Z,0.50
2023-02-26T19:44:43.590Z,0.40
2023-02-26T19:47:13.444Z,0.40
2023-02-26T19:49:43.352Z,0.30
2023-02-26T19:52:13.282Z,0.30
2023-02-26T19:54:45.701Z,0.30
2023-02-26T19:57:15.660Z,0.30
2023-02-26T19:59:47.220Z,0.20
2023-02-26T20:02:17.609Z,0.20
2023-02-26T20:04:47.497Z,0.20
2023-02-26T20:07:17.406Z,0.20
2023-02-26T20:09:49.933Z,0.20
2023-02-26T20:12:19.938Z,0.20
2023-02-26T20:14:49.860Z,0.10
2023-02-26T20:17:19.750Z,0.10
2023-02-26T20:19:49.623Z,0.00
2023-02-26T20:22:22.854Z,0.00
2023-02-26T20:24:55.374Z,0.00
2023-02-26T20:27:25.229Z,0.00
2023-02-26T20:29:55.096Z,0.00
2023-02-26T20:32:26.197Z,-0.10
2023-02-26T20:34:56.137Z,-0.10
2023-02-26T20:37:25.990Z,-0.10
2023-02-26T20:39:58.438Z,-0.10
2023-02-26T20:42:28.353Z,-0.10
2023-02-26T20:44:58.246Z,-0.10
2023-02-26T20:47:28.258Z,0.00
2023-02-26T20:49:58.285Z,0.00
2023-02-26T20:52:28.134Z,0.00
2023-02-26T20:55:00.594Z,0.10
2023-02-26T20:57:32.488Z,0.10
2023-02-26T21:00:09.873Z,0.10
2023-02-26T21:02:40.196Z,0.10
2023-02-26T21:05:12.422Z,0.20
2023-02-26T21:07:42.883Z,0.20
2023-02-26T21:10:19.443Z,0.20
2023-02-26T21:12:51.715Z,0.20
2023-02-26T21:15:21.980Z,0.30
2023-02-26T21:17:51.811Z,0.30
2023-02-26T21:20:22.352Z,0.30
2023-02-26T21:22:53.656Z,0.30
2023-02-26T21:25:26.136Z,0.30
2023-02-26T21:27:56.072Z,0.20
2023-02-26T21:30:26.105Z,0.30
2023-02-26T21:32:55.946Z,0.30
2023-02-26T21:35:26.032Z,0.20
2023-02-26T21:37:55.942Z,0.20
2023-02-26T21:40:28.932Z,0.30
2023-02-26T21:42:58.784Z,0.30
2023-02-26T21:45:28.662Z,0.30
2023-02-26T21:47:58.882Z,0.40
2023-02-26T21:50:28.806Z,0.40
2023-02-26T21:52:58.650Z,0.40
2023-02-26T21:55:31.105Z,0.40
2023-02-26T21:58:00.973Z,0.40
2023-02-26T22:00:31.114Z,0.40
2023-02-26T22:03:01.122Z,0.30
2023-02-26T22:05:30.983Z,0.40
2023-02-26T22:08:00.798Z,0.30
2023-02-26T22:10:33.236Z,0.30
2023-02-26T22:13:03.144Z,0.30
2023-02-26T22:15:33.020Z,0.30
2023-02-26T22:18:03.092Z,0.40
2023-02-26T22:20:33.703Z,0.40
2023-02-26T22:23:04.665Z,0.40
2023-02-26T22:25:37.247Z,0.40
2023-02-26T22:28:07.496Z,0.40
2023-02-26T22:30:37.548Z,0.40
2023-02-26T22:33:07.833Z,0.40
2023-02-26T22:35:37.804Z,0.40
2023-02-26T22:38:07.685Z,0.30
2023-02-26T22:40:40.114Z,0.40
2023-02-26T22:43:10.514Z,0.30
2023-02-26T22:45:40.380Z,0.30
2023-02-26T22:48:11.049Z,0.40
2023-02-26T22:50:40.992Z,0.40
2023-02-26T22:53:10.828Z,0.40
2023-02-26T22:55:43.280Z,0.40
2023-02-26T22:58:13.142Z,0.30
2023-02-26T23:00:44.383Z,0.30
2023-02-26T23:03:14.763Z,0.40
2023-02-26T23:05:44.682Z,0.40
2023-02-26T23:08:14.502Z,0.40
2023-02-26T23:10:48.249Z,0.40
2023-02-26T23:13:18.468Z,0.40
2023-02-26T23:15:49.107Z,0.40
2023-02-26T23:18:19.003Z,0.40
2023-02-26T23:20:51.548Z,0.30
2023-02-26T23:23:21.397Z,0.30
2023-02-26T23:25:53.825Z,0.40
2023-02-26T23:28:25.405Z,0.40
2023-02-26T23:30:55.447Z,0.30
2023-02-26T23:33:26.086Z,0.30
2023-02-26T23:35:56.394Z,0.30
2023-02-26T23:38:26.532Z,0.30
2023-02-26T23:40:59.318Z,0.20
2023-02-26T23:43:29.227Z,0.10
2023-02-26T23:45:59.091Z,0.20
2023-02-26T23:48:29.400Z,0.10
2023-02-26T23:50:59.315Z,0.10
2023-02-26T23:53:29.272Z,0.10
2023-02-26T23:56:01.730Z,0.10
2023-02-26T23:58:33.208Z,0.00
